DRI-NNSC Building Weather observations

Data are for 10 minute period ending at time listed.
 Day   Time   Solar   Ave.   Ave.  Ave.  Vector  Max.   Baro.   Total    
  of    of     Rad.   Air    Rel.  Wind   Wind   Wind  Press.  Precip.   
Year   Day            Temp.  Hum.  Speed  Dir.   Gust                    
2016   (PST)  Kw/m2    F      %     mph   deg.    mph    mb.     in.     
-------------------------------------------------------------------------
  38   18:00   0.00   44.7    58   10.5   120     16   862.9    0.00 
  38   18:10   0.00   45.0    57    9.3   130     14   863.0    0.00 
  38   18:20   0.00   44.6    59    8.0   126     16   863.2    0.00 
  38   18:30   0.00   44.0    60    7.4   105     11   863.3    0.00 
  38   18:40   0.00   44.0    60    7.0    95     11   863.3    0.00 
  38   18:50   0.00   43.7    61    3.8   100      8   863.4    0.00 
  38   19:00   0.00   43.2    62    3.0    99      6   863.5    0.00 
  38   19:10   0.00   43.5    61    4.2    99      7   863.5    0.00 
  38   19:20   0.00   42.3    64    3.9    73      7   863.5    0.00 
  38   19:30   0.00   41.7    66    2.9    72      6   863.6    0.00 
  38   19:40   0.00   42.0    66    3.6    80      5   863.7    0.00 
  38   19:50   0.00   42.0    66    3.3    74      7   863.7    0.00 
  38   20:00   0.00   41.8    66    2.6    79      6   863.7    0.00 
  38   20:10   0.00   42.3    65    3.8    73      7   863.8    0.00 
  38   20:20   0.00   42.3    65    2.6    75      5   863.9    0.00 
  38   20:30   0.00   42.3    64    3.0    78      5   864.0    0.00 
  38   20:40   0.00   42.2    64    3.7    70      5   864.0    0.00 
  38   20:50   0.00   41.9    64    3.9    70      5   864.1    0.00 
  38   21:00   0.00   41.5    65    4.3    59      6   864.2    0.00 
  38   21:10   0.00   41.3    65    3.4    74      6   864.2    0.00 
  38   21:20   0.00   41.7    64    3.6    77      6   864.2    0.00 
  38   21:30   0.00   41.2    66    3.7    69      6   864.2    0.00 
  38   21:40   0.00   40.9    67    4.3    63      6   864.3    0.00 
  38   21:50   0.00   40.5    68    3.7    60      5   864.4    0.00 
  38   22:00   0.00   40.5    68    2.8    69      5   864.5    0.00 
  38   22:10   0.00   40.6    67    2.2    55      4   864.5    0.00 
  38   22:20   0.00   39.7    69    0.8   339      2   864.6    0.00 
  38   22:30   0.00   40.8    65    3.2   130      6   864.6    0.00 
  38   22:40   0.00   41.1    62    1.2   173      3   864.7    0.00 
  38   22:50   0.00   40.5    64    1.3   165      4   864.7    0.00 
  38   23:00   0.00   39.5    68    0.4   224      1   864.7    0.00 
  38   23:10   0.00   39.8    67    0.3   147      1   864.8    0.00 
  38   23:20   0.00   40.5    64    1.9   139      4   864.9    0.00 
  38   23:30   0.00   41.4    62    2.9   140      5   864.8    0.00 
  38   23:40   0.00   42.2    62    3.9   140      6   864.8    0.00 
  38   23:50   0.00   41.6    63    4.1   133      5   864.7    0.00 
  39    0:00   0.00   41.7    63    4.6   128      6   864.7    0.00 
  39    0:10   0.00   40.9    65    4.7   113      8   864.7    0.00 
  39    0:20   0.00   41.9    64    5.2   100      7   864.7    0.00 
  39    0:30   0.00   41.8    64    4.8   103      8   864.7    0.00 
  39    0:40   0.00   41.4    64    5.0   100      7   864.6    0.00 
  39    0:50   0.00   40.8    66    4.8   104      6   864.5    0.00 
  39    1:00   0.00   39.8    68    5.9   110      8   864.4    0.00 
  39    1:10   0.00   39.6    69    6.4   106      9   864.3    0.00 
  39    1:20   0.00   39.5    69    6.6   106      8   864.2    0.00 
  39    1:30   0.00   39.4    70    6.1   111      8   864.2    0.00 
  39    1:40   0.00   38.6    72    6.6   104      8   864.3    0.00 
  39    1:50   0.00   38.6    72    5.5   102      7   864.3    0.00 
  39    2:00   0.00   38.4    72    5.2   103      7   864.3    0.00 
  39    2:10   0.00   38.2    73    4.5   114      6   864.2    0.00 
  39    2:20   0.00   38.9    71    4.4   134      7   864.2    0.00 
  39    2:30   0.00   39.5    69    3.3   148      6   864.0    0.00 
  39    2:40   0.00   38.5    71    1.7   148      3   863.9    0.00 
  39    2:50   0.00   37.9    72    3.2   102      5   863.9    0.00 
  39    3:00   0.00   38.3    72    4.3    88      7   863.9    0.00 
  39    3:10   0.00   37.9    73    4.4    76      6   863.9    0.00 
  39    3:20   0.00   37.5    74    4.3    67      6   863.9    0.00 
  39    3:30   0.00   37.5    75    5.3    60      6   863.8    0.00 
  39    3:40   0.00   37.5    75    4.8    66      6   863.8    0.00 
  39    3:50   0.00   37.7    75    5.1    64      6   863.8    0.00 
  39    4:00   0.00   37.8    74    5.3    65      6   863.8    0.00 
  39    4:10   0.00   37.7    75    5.6    60      7   863.7    0.00 
  39    4:20   0.00   37.1    76    5.1    57      7   863.7    0.00 
  39    4:30   0.00   37.6    75    4.6    55      6   863.8    0.00 
  39    4:40   0.00   37.7    74    4.9    55      6   863.8    0.00 
  39    4:50   0.00   37.3    75    4.4    51      6   863.9    0.00 
  39    5:00   0.00   36.9    76    5.3    45     10   864.0    0.00 
  39    5:10   0.00   36.9    76    5.5    41     10   864.1    0.00 
  39    5:20   0.00   36.8    76    6.8    38     11   864.1    0.00 
  39    5:30   0.00   35.9    78    7.4    37     12   864.1    0.00 
  39    5:40   0.00   36.1    78    5.9    41     11   864.1    0.00 
  39    5:50   0.00   36.0    78    4.4    47     10   864.1    0.00 
  39    6:00   0.00   35.7    78    3.3    49     10   864.1    0.00 
  39    6:10   0.00   35.2    79    2.4    69      5   864.1    0.00 
  39    6:20   0.00   35.3    79    3.3    77      6   864.2    0.00 
  39    6:30   0.00   35.2    79    3.1    72      6   864.2    0.00 
  39    6:40   0.00   35.8    78    2.4    67      8   864.2    0.00 
  39    6:50   0.00   35.8    77    2.0    55      6   864.3    0.00 
  39    7:00   0.00   35.8    77    2.7    60      5   864.3    0.00 
  39    7:10   0.00   35.6    78    2.3    61      4   864.3    0.00 
  39    7:20   0.01   35.9    77    3.7    71      5   864.4    0.00 
  39    7:30   0.03   36.6    75    3.2    73      5   864.5    0.00 
  39    7:40   0.06   37.2    74    1.0    79      3   864.4    0.00 
  39    7:50   0.09   37.4    73    0.1   186      1   864.5    0.00 
  39    8:00   0.11   37.5    73    0.9    59      2   864.5    0.00 
  39    8:10   0.14   37.3    74    0.7   356      2   864.4    0.00 
  39    8:20   0.16   38.7    71    0.4   204      2   864.4    0.00 
  39    8:30   0.19   39.2    70    0.4   178      2   864.5    0.00 
  39    8:40   0.22   39.3    69    2.1   175      5   864.6    0.00 
  39    8:50   0.25   38.4    72    2.7   128      4   864.7    0.00 
  39    9:00   0.28   38.3    72    2.9   114      4   864.7    0.00 
  39    9:10   0.36   39.0    71    3.0   106      6   864.7    0.00 
  39    9:20   0.33   39.9    69    3.1   116      5   864.7    0.00 
  39    9:30   0.35   40.1    68    3.4   111      5   864.8    0.00 
  39    9:40   0.38   40.2    68    2.9    81      6   864.8    0.00 
  39    9:50   0.40   40.9    66    4.1   107      7   864.7    0.00 
  39   10:00   0.43   41.3    65    3.3   104      6   864.7    0.00 
  39   10:10   0.45   41.8    64    3.4   127      6   864.8    0.00 
  39   10:20   0.47   42.2    63    3.1   122      6   864.7    0.00 
  39   10:30   0.49   42.8    61    4.6   117      8   864.7    0.00 
  39   10:40   0.51   43.6    60    4.7   110      8   864.6    0.00 
  39   10:50   0.52   44.4    59    5.0   108      8   864.5    0.00 
  39   11:00   0.54   45.0    57    4.3   117      9   864.5    0.00 
  39   11:10   0.55   44.8    57    5.1   114      9   864.4    0.00 
  39   11:20   0.56   45.0    56    5.4   117      9   864.3    0.00 
  39   11:30   0.57   45.5    56    4.8   111      8   864.2    0.00 
  39   11:40   0.57   46.4    55    3.1    90      7   864.1    0.00 
  39   11:50   0.58   48.0    52    4.3   144      8   863.9    0.00 
  39   12:00   0.58   49.6    49    3.8   152      8   863.8    0.00 
  39   12:10   0.58   50.4    47    3.9   148     10   863.6    0.00 
  39   12:20   0.59   50.5    47    4.5   135      9   863.5    0.00 
  39   12:30   0.58   50.6    44    5.7   122     10   863.3    0.00 
  39   12:40   0.58   51.0    44    5.5   105     10   863.2    0.00 
  39   12:50   0.58   51.1    44    5.1   101     10   863.0    0.00 
  39   13:00   0.58   51.8    43    5.6   103     11   862.9    0.00 
  39   13:10   0.57   51.9    42    4.8   109     11   862.8    0.00 
  39   13:20   0.56   51.5    43    7.6    98     14   862.7    0.00 
  39   13:30   0.56   51.3    44    8.4    93     14   862.7    0.00 
  39   13:40   0.54   51.4    42    6.7    94     15   862.7    0.00 
  39   13:50   0.53   51.7    41    7.6   115     12   862.5    0.00 
  39   14:00   0.52   51.7    41    8.6   104     14   862.5    0.00 
  39   14:10   0.50   52.0    41    8.8   101     16   862.3    0.00 
  39   14:20   0.48   51.7    40    9.5    94     16   862.3    0.00 
  39   14:30   0.46   51.9    41    9.2    98     14   862.3    0.00 
  39   14:40   0.44   51.9    42    9.7   101     16   862.1    0.00 
  39   14:50   0.42   51.9    42    9.0   106     16   862.1    0.00 
  39   15:00   0.40   52.3    41    8.3   106     13   862.1    0.00 
  39   15:10   0.37   52.1    41    9.4   106     16   862.2    0.00 
  39   15:20   0.35   51.5    41    9.9   107     15   862.1    0.00 
  39   15:30   0.32   51.5    41   10.4   109     16   862.0    0.00 
  39   15:40   0.29   51.4    41   10.1   107     16   862.0    0.00 
  39   15:50   0.27   51.1    41   12.2   104     19   861.9    0.00 
  39   16:00   0.24   51.0    42   10.6   106     17   862.0    0.00 
  39   16:10   0.21   50.6    42   10.6    93     16   862.1    0.00 
  39   16:20   0.18   50.2    43    9.8    90     16   862.1    0.00 
  39   16:30   0.15   50.3    43    9.6   101     15   862.2    0.00 
  39   16:40   0.12   49.8    43   10.4   104     16   862.2    0.00 
  39   16:50   0.10   49.4    43   10.7   104     15   862.3    0.00 
  39   17:00   0.08   48.8    44    9.8   103     14   862.2    0.00 
  39   17:10   0.05   48.1    46    9.9   104     14   862.2    0.00 
  39   17:20   0.02   47.3    49    8.4    97     14   862.1    0.00 
  39   17:30   0.01   46.6    50    7.4    98     11   862.1    0.00 
  39   17:40   0.00   46.1    52    7.1   102     11   862.1    0.00 
  39   17:50   0.00   45.8    53    6.5   101     10   862.1    0.00 

Return to NNSC graphs page.


Western Regional Climate Center,wrcc@dri.edu